Portland, OR

1:29 AM PDT on September 21, 2014 (GMT -0700)
Portland International | Change Station
CLOSE
Current Station
Airport
Location: Portland,
Elevation: 16 ft
Nearby Weather Stations

Elev 16 ft 45.60 °N, 122.61 °W | Updated 36 minutes ago

Clear
Clear
70 °F
Feels Like 70 °F
N
5
Wind Variable Wind from West

Today
High -- | Low -- °F
--% Chance of Precip.
Yesterday
High -- | Low -- °F
Precip. -- in
6:56 AM 7:10 PM
Waning Crescent, 8% visible
Pressure 29.83 in
Visibility 10.0 miles
Clouds Few 5000 ft
Dew Point 57 °F
Humidity 64%
Rainfall 0.00 in
Snow Depth Not available.
UV 0 out of 12
Pollen 2.70 out of 12
Ozone Good
PM2.5 Good
Flu Activity Not available.
METAR KPDX 210753Z 28004KT 10SM FEW050 21/14 A2983 RMK AO2 SLP100 FU FEW050 T02060144 403440150

More Conditions Fewer Conditions

Pressure 29.83 in
Visibility 10.0 miles
Clouds Few 5000 ft
Dew Point 57 °F
Humidity 64%
Rainfall 0.00 in
Snow Depth Not available.
UV 0 out of 12
Pollen 2.70 out of 12
Ozone Good
PM2.5 Good
Flu Activity Not available.
METAR KPDX 210753Z 28004KT 10SM FEW050 21/14 A2983 RMK AO2 SLP100 FU FEW050 T02060144 403440150

More Conditions Fewer Conditions

10-Day Weather Forecast

Almanac

Astronomy

Sep. 21, 2014 Rise Set
Actual Time 6:56 AM PDT 7:10 PM PDT
Civil Twilight 6:27 AM PDT 7:39 PM PDT
Nautical Twilight 5:52 AM PDT 8:14 PM PDT
Astronomical Twilight 5:16 AM PDT 8:49 PM PDT
Moon 4:29 AM PDT 5:53 PM PDT
Length of Visible Light 13h 12m
Length of Day
12h 13m
Tomorrow will be 3m 10s shorter.
Waning Crescent, 8% of the Moon is Illuminated
Today
Waning Crescent
Sep 24
New
Oct 1
First Quarter
Oct 8
Full
Oct 15
Last Quarter

Today's Extremes

State Highs State Lows

Community

WunderPhotos

Upload Photos

1,755,101 photos uploaded!

Nearby

Air Quality

  Air Quality AQ Index Pollutant
Yesterday Good
OZONE
Yesterday Good
PM2.5
Current Good
PM2.5
Current Good
OZONE
Saturday Good
PM2.5
Sunday Good
PM2.5

Snow Depth

Station Depth Elevation
Billie Creek Divide 0 in 5300 ft
Fish Creek 0 in 7900 ft
North Fork 0 in 3120 ft
Daly Lake 0 in 3600 ft
Lucky Strike 2 in 5050 ft

Earthquake Activity

City Distance Mag. Time & Date
No recent earthquake activity has been reported nearby.
Minimum magnitude displayed is 2.5.

Coastal Water Temperatures

Place Temperature
No Stations Reporting

Nearby Weather Stations